MAPA DE AEROPUERTO

INFORMACIÓN METAR y TAF

METAR FOR GCXO
ADDS - METARS form results

(0112 UTC 22 February 2020)
Data provider http://aviationweather.gov/metar/data/
 
METAR text: GCXO 220100Z AUTO 26004KT CAVOK 10/08 Q1020
Conditions at: GCXO (TENERIFE/LOS ROD, ES) observed 0100 UTC 22 February 2020
Temperature: 10.0°C (50°F)
Dewpoint: 8.0°C (46°F) [RH = 87%]
Pressure (altimeter): 30.12 inches Hg (1020.0 mb)
Winds: from the W (260 degrees) at 5 MPH (4 knots; 2.1 m/s)
Visibility: 6 or more miles (10+ km)
Ceiling: ceiling and visibility are OK
Clouds: unknown
Weather: no significant weather observed at this time

METAR text: GCXO 220030Z AUTO 28004KT CAVOK 10/08 Q1020
Conditions at: GCXO (TENERIFE/LOS ROD, ES) observed 0030 UTC 22 February 2020
Temperature: 10.0°C (50°F)
Dewpoint: 8.0°C (46°F) [RH = 87%]
Pressure (altimeter): 30.12 inches Hg (1020.0 mb)
Winds: from the W (280 degrees) at 5 MPH (4 knots; 2.1 m/s)
Visibility: 6 or more miles (10+ km)
Ceiling: ceiling and visibility are OK
Clouds: unknown
Weather: no significant weather observed at this time

Forecast for: GCXO (TENERIFE/LOS ROD, ES)
Text: TAF GCXO 212000Z 2121/2221 31013KT 9999 BKN015 TX21/2214Z TN11/2206Z
Forecast period: 2100 UTC 21 February 2020 to 0100 UTC 22 February 2020
Forecast type: FROM: standard forecast or significant change
Winds: from the NW (310 degrees) at 15 MPH (13 knots; 6.7 m/s)
Visibility: 6 or more miles 10+ km)
Ceiling: 1500 feet AGL
Clouds: broken clouds at 1500 feet AGL
Weather: no significant weather forecast for this period
Text: BECMG 2201/2204 VRB05KT
Forecast period: 0100 to 0900 UTC 22 February 2020
Forecast type: BECOMING: Conditions expected to become as follows by 0400 UTC 22 February 2020
Winds: variable direction winds at 6 MPH (5 knots; 2.6 m/s)
Visibility: 6 or more miles 10+ km)
Ceiling: 1500 feet AGL
Clouds: broken clouds at 1500 feet AGL
Weather: no significant weather forecast for this period
Text: BECMG 2209/2211 13010KT
Forecast period: 0900 to 1500 UTC 22 February 2020
Forecast type: BECOMING: Conditions expected to become as follows by 1100 UTC 22 February 2020
Winds: from the SE (130 degrees) at 12 MPH (10 knots; 5.1 m/s)
Visibility: 6 or more miles 10+ km)
Ceiling: 1500 feet AGL
Clouds: broken clouds at 1500 feet AGL
Weather: no significant weather forecast for this period
Text: BECMG 2215/2217 3000 HZ
Forecast period: 1500 to 2100 UTC 22 February 2020
Forecast type: BECOMING: Conditions expected to become as follows by 1700 UTC 22 February 2020
Winds: from the SE (130 degrees) at 12 MPH (10 knots; 5.1 m/s)
Visibility: 1.86 miles (2.99 km)
Ceiling: 1500 feet AGL
Clouds: broken clouds at 1500 feet AGL
Weather: HZ  (haze)